sensor_id;sensor_type;location;lat;lon;timestamp;P1;durP1;ratioP1;P2;durP2;ratioP2
59468;SDS011;45277;52.768;18.262;2023-03-31T00:01:30;13.65;;;8.93;;
59468;SDS011;45277;52.768;18.262;2023-03-31T00:03:03;14.13;;;9.13;;
59468;SDS011;45277;52.768;18.262;2023-03-31T00:04:42;15.07;;;9.80;;
59468;SDS011;45277;52.768;18.262;2023-03-31T00:06:21;14.55;;;8.07;;
59468;SDS011;45277;52.768;18.262;2023-03-31T00:07:54;10.10;;;7.63;;
59468;SDS011;45277;52.768;18.262;2023-03-31T00:09:30;7.65;;;6.13;;
59468;SDS011;45277;52.768;18.262;2023-03-31T00:11:03;15.10;;;7.95;;
59468;SDS011;45277;52.768;18.262;2023-03-31T00:12:37;19.40;;;13.32;;
59468;SDS011;45277;52.768;18.262;2023-03-31T00:14:08;14.20;;;9.88;;
59468;SDS011;45277;52.768;18.262;2023-03-31T00:15:40;19.80;;;12.93;;
59468;SDS011;45277;52.768;18.262;2023-03-31T00:17:12;23.98;;;14.23;;
59468;SDS011;45277;52.768;18.262;2023-03-31T00:18:43;46.53;;;26.90;;
59468;SDS011;45277;52.768;18.262;2023-03-31T00:20:16;20.15;;;11.10;;
59468;SDS011;45277;52.768;18.262;2023-03-31T00:21:49;12.63;;;7.50;;
59468;SDS011;45277;52.768;18.262;2023-03-31T00:23:21;12.25;;;8.30;;
59468;SDS011;45277;52.768;18.262;2023-03-31T00:24:57;12.68;;;9.57;;
59468;SDS011;45277;52.768;18.262;2023-03-31T00:26:29;18.73;;;11.82;;
59468;SDS011;45277;52.768;18.262;2023-03-31T00:28:00;7.90;;;6.25;;
59468;SDS011;45277;52.768;18.262;2023-03-31T00:29:32;15.23;;;11.73;;
59468;SDS011;45277;52.768;18.262;2023-03-31T00:31:05;9.35;;;6.15;;
59468;SDS011;45277;52.768;18.262;2023-03-31T00:32:37;11.93;;;7.60;;
59468;SDS011;45277;52.768;18.262;2023-03-31T00:34:08;14.35;;;10.00;;
59468;SDS011;45277;52.768;18.262;2023-03-31T00:35:40;15.43;;;7.40;;
59468;SDS011;45277;52.768;18.262;2023-03-31T00:37:11;14.02;;;8.52;;
59468;SDS011;45277;52.768;18.262;2023-03-31T00:38:44;11.75;;;6.93;;
59468;SDS011;45277;52.768;18.262;2023-03-31T00:40:16;14.20;;;8.88;;
59468;SDS011;45277;52.768;18.262;2023-03-31T00:41:47;20.30;;;13.35;;
59468;SDS011;45277;52.768;18.262;2023-03-31T00:43:30;17.55;;;11.20;;
59468;SDS011;45277;52.768;18.262;2023-03-31T00:46:51;45.42;;;26.63;;
59468;SDS011;45277;52.768;18.262;2023-03-31T00:48:44;36.47;;;23.38;;
59468;SDS011;45277;52.768;18.262;2023-03-31T00:50:26;34.22;;;23.25;;
59468;SDS011;45277;52.768;18.262;2023-03-31T00:52:11;26.77;;;18.02;;
59468;SDS011;45277;52.768;18.262;2023-03-31T00:53:50;44.70;;;30.85;;
59468;SDS011;45277;52.768;18.262;2023-03-31T00:55:30;42.47;;;26.92;;
59468;SDS011;45277;52.768;18.262;2023-03-31T00:57:05;43.10;;;25.98;;
59468;SDS011;45277;52.768;18.262;2023-03-31T00:58:38;41.55;;;26.73;;
59468;SDS011;45277;52.768;18.262;2023-03-31T01:00:13;36.53;;;21.08;;
59468;SDS011;45277;52.768;18.262;2023-03-31T01:01:46;27.20;;;15.35;;
59468;SDS011;45277;52.768;18.262;2023-03-31T01:03:19;16.70;;;11.20;;
59468;SDS011;45277;52.768;18.262;2023-03-31T01:04:55;20.90;;;12.20;;
59468;SDS011;45277;52.768;18.262;2023-03-31T01:06:31;75.45;;;47.33;;
59468;SDS011;45277;52.768;18.262;2023-03-31T01:08:03;35.38;;;20.85;;
59468;SDS011;45277;52.768;18.262;2023-03-31T01:09:35;15.95;;;11.63;;
59468;SDS011;45277;52.768;18.262;2023-03-31T01:11:09;17.75;;;10.80;;
59468;SDS011;45277;52.768;18.262;2023-03-31T01:12:45;16.58;;;10.05;;
59468;SDS011;45277;52.768;18.262;2023-03-31T01:14:20;16.05;;;10.30;;
59468;SDS011;45277;52.768;18.262;2023-03-31T01:15:51;17.42;;;11.07;;
59468;SDS011;45277;52.768;18.262;2023-03-31T01:17:23;16.38;;;9.77;;
59468;SDS011;45277;52.768;18.262;2023-03-31T01:18:58;13.18;;;9.05;;
59468;SDS011;45277;52.768;18.262;2023-03-31T01:27:50;20.42;;;13.68;;
59468;SDS011;45277;52.768;18.262;2023-03-31T01:34:59;28.13;;;17.15;;
59468;SDS011;45277;52.768;18.262;2023-03-31T01:40:06;15.23;;;10.52;;
59468;SDS011;45277;52.768;18.262;2023-03-31T01:47:01;12.77;;;8.95;;
59468;SDS011;45277;52.768;18.262;2023-03-31T01:49:05;14.18;;;9.30;;
59468;SDS011;45277;52.768;18.262;2023-03-31T01:50:54;14.05;;;8.55;;
59468;SDS011;45277;52.768;18.262;2023-03-31T01:52:42;12.05;;;9.20;;
59468;SDS011;45277;52.768;18.262;2023-03-31T01:58:06;15.35;;;8.73;;
59468;SDS011;45277;52.768;18.262;2023-03-31T02:00:07;21.55;;;7.75;;
59468;SDS011;45277;52.768;18.262;2023-03-31T02:01:51;9.05;;;7.38;;
59468;SDS011;45277;52.768;18.262;2023-03-31T02:03:30;12.00;;;8.77;;
59468;SDS011;45277;52.768;18.262;2023-03-31T02:05:07;13.05;;;8.02;;
59468;SDS011;45277;52.768;18.262;2023-03-31T02:06:43;13.60;;;8.55;;
59468;SDS011;45277;52.768;18.262;2023-03-31T02:08:24;12.13;;;8.05;;
59468;SDS011;45277;52.768;18.262;2023-03-31T02:09:59;12.88;;;8.32;;
59468;SDS011;45277;52.768;18.262;2023-03-31T02:11:34;13.43;;;8.25;;
59468;SDS011;45277;52.768;18.262;2023-03-31T02:13:09;11.10;;;7.75;;
59468;SDS011;45277;52.768;18.262;2023-03-31T02:14:43;16.63;;;8.63;;
59468;SDS011;45277;52.768;18.262;2023-03-31T02:16:19;14.82;;;8.85;;
59468;SDS011;45277;52.768;18.262;2023-03-31T02:17:56;19.77;;;8.98;;
59468;SDS011;45277;52.768;18.262;2023-03-31T02:19:33;17.65;;;9.48;;
59468;SDS011;45277;52.768;18.262;2023-03-31T02:21:09;12.40;;;7.47;;
59468;SDS011;45277;52.768;18.262;2023-03-31T02:22:45;19.70;;;9.32;;
59468;SDS011;45277;52.768;18.262;2023-03-31T02:24:22;18.95;;;8.18;;
59468;SDS011;45277;52.768;18.262;2023-03-31T02:26:03;18.83;;;9.20;;
59468;SDS011;45277;52.768;18.262;2023-03-31T02:27:42;13.27;;;6.60;;
59468;SDS011;45277;52.768;18.262;2023-03-31T02:29:18;9.60;;;7.35;;
59468;SDS011;45277;52.768;18.262;2023-03-31T02:32:49;11.15;;;7.70;;
59468;SDS011;45277;52.768;18.262;2023-03-31T02:34:20;17.38;;;8.68;;
59468;SDS011;45277;52.768;18.262;2023-03-31T02:35:53;13.27;;;7.28;;
59468;SDS011;45277;52.768;18.262;2023-03-31T02:37:24;6.15;;;4.85;;
59468;SDS011;45277;52.768;18.262;2023-03-31T02:38:58;9.80;;;6.40;;
59468;SDS011;45277;52.768;18.262;2023-03-31T02:40:39;14.82;;;9.40;;
59468;SDS011;45277;52.768;18.262;2023-03-31T02:42:11;15.43;;;9.32;;
59468;SDS011;45277;52.768;18.262;2023-03-31T02:43:42;10.85;;;7.25;;
59468;SDS011;45277;52.768;18.262;2023-03-31T02:47:20;14.75;;;7.88;;
59468;SDS011;45277;52.768;18.262;2023-03-31T02:48:52;10.60;;;4.88;;
59468;SDS011;45277;52.768;18.262;2023-03-31T02:50:27;17.40;;;9.35;;
59468;SDS011;45277;52.768;18.262;2023-03-31T02:52:15;12.40;;;7.47;;
59468;SDS011;45277;52.768;18.262;2023-03-31T02:58:04;25.55;;;9.73;;
59468;SDS011;45277;52.768;18.262;2023-03-31T03:00:08;21.30;;;9.43;;
59468;SDS011;45277;52.768;18.262;2023-03-31T03:12:55;28.00;;;11.70;;
59468;SDS011;45277;52.768;18.262;2023-03-31T03:14:50;22.35;;;10.30;;
59468;SDS011;45277;52.768;18.262;2023-03-31T03:16:32;20.67;;;10.90;;
59468;SDS011;45277;52.768;18.262;2023-03-31T03:18:17;20.95;;;11.10;;
59468;SDS011;45277;52.768;18.262;2023-03-31T03:19:50;17.33;;;10.13;;
59468;SDS011;45277;52.768;18.262;2023-03-31T03:21:24;16.77;;;11.00;;
59468;SDS011;45277;52.768;18.262;2023-03-31T03:22:56;19.08;;;11.25;;
59468;SDS011;45277;52.768;18.262;2023-03-31T03:24:27;14.38;;;8.77;;
59468;SDS011;45277;52.768;18.262;2023-03-31T03:25:59;17.42;;;11.00;;
59468;SDS011;45277;52.768;18.262;2023-03-31T03:27:30;20.98;;;11.07;;
59468;SDS011;45277;52.768;18.262;2023-03-31T03:29:02;20.88;;;10.88;;
59468;SDS011;45277;52.768;18.262;2023-03-31T03:30:33;22.15;;;10.38;;
59468;SDS011;45277;52.768;18.262;2023-03-31T03:32:05;21.42;;;12.20;;
59468;SDS011;45277;52.768;18.262;2023-03-31T03:33:36;21.13;;;12.05;;
59468;SDS011;45277;52.768;18.262;2023-03-31T03:35:08;21.73;;;11.15;;
59468;SDS011;45277;52.768;18.262;2023-03-31T03:36:40;19.83;;;11.05;;
59468;SDS011;45277;52.768;18.262;2023-03-31T03:38:12;21.48;;;10.75;;
59468;SDS011;45277;52.768;18.262;2023-03-31T03:39:43;22.02;;;12.38;;
59468;SDS011;45277;52.768;18.262;2023-03-31T03:41:14;20.85;;;11.60;;
59468;SDS011;45277;52.768;18.262;2023-03-31T03:42:46;16.38;;;9.77;;
59468;SDS011;45277;52.768;18.262;2023-03-31T03:44:17;19.83;;;12.18;;
59468;SDS011;45277;52.768;18.262;2023-03-31T03:45:49;19.52;;;11.30;;
59468;SDS011;45277;52.768;18.262;2023-03-31T03:47:21;19.33;;;12.05;;
59468;SDS011;45277;52.768;18.262;2023-03-31T03:48:53;26.50;;;13.05;;
59468;SDS011;45277;52.768;18.262;2023-03-31T03:50:25;16.65;;;12.23;;
59468;SDS011;45277;52.768;18.262;2023-03-31T03:51:56;18.60;;;11.20;;
59468;SDS011;45277;52.768;18.262;2023-03-31T03:53:28;21.08;;;12.25;;
59468;SDS011;45277;52.768;18.262;2023-03-31T03:54:59;17.88;;;10.18;;
59468;SDS011;45277;52.768;18.262;2023-03-31T03:56:31;18.90;;;12.20;;
59468;SDS011;45277;52.768;18.262;2023-03-31T03:58:03;24.92;;;13.25;;
59468;SDS011;45277;52.768;18.262;2023-03-31T03:59:34;21.45;;;11.32;;
59468;SDS011;45277;52.768;18.262;2023-03-31T04:01:06;26.17;;;9.73;;
59468;SDS011;45277;52.768;18.262;2023-03-31T04:02:38;19.92;;;10.55;;
59468;SDS011;45277;52.768;18.262;2023-03-31T04:04:09;19.67;;;12.60;;
59468;SDS011;45277;52.768;18.262;2023-03-31T04:05:41;15.38;;;9.60;;
59468;SDS011;45277;52.768;18.262;2023-03-31T04:07:13;17.85;;;9.32;;
59468;SDS011;45277;52.768;18.262;2023-03-31T04:08:45;29.45;;;12.18;;
59468;SDS011;45277;52.768;18.262;2023-03-31T04:10:16;29.63;;;12.63;;
59468;SDS011;45277;52.768;18.262;2023-03-31T04:11:48;26.33;;;14.23;;
59468;SDS011;45277;52.768;18.262;2023-03-31T04:13:19;26.20;;;14.43;;
59468;SDS011;45277;52.768;18.262;2023-03-31T04:14:51;15.98;;;9.65;;
59468;SDS011;45277;52.768;18.262;2023-03-31T04:16:22;18.92;;;12.77;;
59468;SDS011;45277;52.768;18.262;2023-03-31T04:17:54;13.68;;;9.07;;
59468;SDS011;45277;52.768;18.262;2023-03-31T04:19:27;27.45;;;9.57;;
59468;SDS011;45277;52.768;18.262;2023-03-31T04:20:59;17.25;;;10.77;;
59468;SDS011;45277;52.768;18.262;2023-03-31T04:22:36;18.63;;;9.80;;
59468;SDS011;45277;52.768;18.262;2023-03-31T04:24:11;7.93;;;6.20;;
59468;SDS011;45277;52.768;18.262;2023-03-31T04:25:45;15.63;;;10.55;;
59468;SDS011;45277;52.768;18.262;2023-03-31T04:27:19;18.15;;;13.15;;
59468;SDS011;45277;52.768;18.262;2023-03-31T04:28:52;17.92;;;8.80;;
59468;SDS011;45277;52.768;18.262;2023-03-31T04:30:28;15.40;;;9.85;;
59468;SDS011;45277;52.768;18.262;2023-03-31T04:32:02;7.35;;;5.40;;
59468;SDS011;45277;52.768;18.262;2023-03-31T04:33:34;13.43;;;8.75;;
59468;SDS011;45277;52.768;18.262;2023-03-31T04:35:08;18.50;;;10.98;;
59468;SDS011;45277;52.768;18.262;2023-03-31T04:36:40;14.57;;;9.35;;
59468;SDS011;45277;52.768;18.262;2023-03-31T04:38:20;7.13;;;6.38;;
59468;SDS011;45277;52.768;18.262;2023-03-31T04:39:53;16.08;;;11.50;;
59468;SDS011;45277;52.768;18.262;2023-03-31T04:41:24;20.75;;;11.75;;
59468;SDS011;45277;52.768;18.262;2023-03-31T04:43:00;20.50;;;12.57;;
59468;SDS011;45277;52.768;18.262;2023-03-31T04:44:31;19.75;;;9.77;;
59468;SDS011;45277;52.768;18.262;2023-03-31T04:46:02;23.55;;;12.73;;
59468;SDS011;45277;52.768;18.262;2023-03-31T04:47:34;17.88;;;11.32;;
59468;SDS011;45277;52.768;18.262;2023-03-31T04:49:05;24.38;;;13.30;;
59468;SDS011;45277;52.768;18.262;2023-03-31T04:50:37;10.40;;;7.22;;
59468;SDS011;45277;52.768;18.262;2023-03-31T04:52:09;18.77;;;11.43;;
59468;SDS011;45277;52.768;18.262;2023-03-31T04:53:40;10.55;;;6.70;;
59468;SDS011;45277;52.768;18.262;2023-03-31T04:55:12;11.77;;;7.25;;
59468;SDS011;45277;52.768;18.262;2023-03-31T04:56:43;15.18;;;9.52;;
59468;SDS011;45277;52.768;18.262;2023-03-31T04:58:14;15.75;;;10.23;;
59468;SDS011;45277;52.768;18.262;2023-03-31T04:59:46;15.60;;;8.95;;
59468;SDS011;45277;52.768;18.262;2023-03-31T05:01:18;20.48;;;11.52;;
59468;SDS011;45277;52.768;18.262;2023-03-31T05:02:49;10.13;;;7.40;;
59468;SDS011;45277;52.768;18.262;2023-03-31T05:04:21;16.40;;;11.25;;
59468;SDS011;45277;52.768;18.262;2023-03-31T05:05:53;20.02;;;10.60;;
59468;SDS011;45277;52.768;18.262;2023-03-31T05:07:24;15.73;;;10.35;;
59468;SDS011;45277;52.768;18.262;2023-03-31T05:08:56;18.90;;;10.80;;
59468;SDS011;45277;52.768;18.262;2023-03-31T05:10:28;14.63;;;8.90;;
59468;SDS011;45277;52.768;18.262;2023-03-31T05:12:00;15.40;;;10.07;;
59468;SDS011;45277;52.768;18.262;2023-03-31T05:13:31;13.00;;;6.65;;
59468;SDS011;45277;52.768;18.262;2023-03-31T05:15:04;9.82;;;6.30;;
59468;SDS011;45277;52.768;18.262;2023-03-31T05:16:36;16.45;;;9.20;;
59468;SDS011;45277;52.768;18.262;2023-03-31T05:18:07;16.08;;;10.10;;
59468;SDS011;45277;52.768;18.262;2023-03-31T05:19:39;16.67;;;10.77;;
59468;SDS011;45277;52.768;18.262;2023-03-31T05:21:12;20.23;;;9.95;;
59468;SDS011;45277;52.768;18.262;2023-03-31T05:22:48;9.15;;;6.88;;
59468;SDS011;45277;52.768;18.262;2023-03-31T05:24:20;12.73;;;7.65;;
59468;SDS011;45277;52.768;18.262;2023-03-31T05:25:52;14.95;;;10.80;;
59468;SDS011;45277;52.768;18.262;2023-03-31T05:27:23;11.95;;;6.85;;
59468;SDS011;45277;52.768;18.262;2023-03-31T05:28:55;15.10;;;9.63;;
59468;SDS011;45277;52.768;18.262;2023-03-31T05:30:26;18.52;;;9.65;;
59468;SDS011;45277;52.768;18.262;2023-03-31T05:31:59;16.00;;;9.70;;
59468;SDS011;45277;52.768;18.262;2023-03-31T05:33:31;9.35;;;6.35;;
59468;SDS011;45277;52.768;18.262;2023-03-31T05:35:04;15.48;;;10.20;;
59468;SDS011;45277;52.768;18.262;2023-03-31T05:36:36;16.73;;;9.60;;
59468;SDS011;45277;52.768;18.262;2023-03-31T05:38:08;12.90;;;9.10;;
59468;SDS011;45277;52.768;18.262;2023-03-31T05:39:39;8.07;;;5.65;;
59468;SDS011;45277;52.768;18.262;2023-03-31T05:41:11;8.13;;;5.85;;
59468;SDS011;45277;52.768;18.262;2023-03-31T05:42:42;11.27;;;8.10;;
59468;SDS011;45277;52.768;18.262;2023-03-31T05:44:14;12.82;;;7.28;;
59468;SDS011;45277;52.768;18.262;2023-03-31T05:45:46;17.70;;;8.80;;
59468;SDS011;45277;52.768;18.262;2023-03-31T05:47:17;14.55;;;8.60;;
59468;SDS011;45277;52.768;18.262;2023-03-31T05:48:49;14.60;;;9.38;;
59468;SDS011;45277;52.768;18.262;2023-03-31T05:50:20;20.35;;;9.85;;
59468;SDS011;45277;52.768;18.262;2023-03-31T05:51:52;17.35;;;8.63;;
59468;SDS011;45277;52.768;18.262;2023-03-31T05:53:23;15.63;;;10.20;;
59468;SDS011;45277;52.768;18.262;2023-03-31T05:54:55;16.25;;;9.20;;
59468;SDS011;45277;52.768;18.262;2023-03-31T05:56:27;19.83;;;9.40;;
59468;SDS011;45277;52.768;18.262;2023-03-31T05:57:59;13.00;;;6.20;;
59468;SDS011;45277;52.768;18.262;2023-03-31T05:59:30;16.85;;;9.45;;
59468;SDS011;45277;52.768;18.262;2023-03-31T06:01:06;13.48;;;8.23;;
59468;SDS011;45277;52.768;18.262;2023-03-31T06:02:37;16.83;;;9.57;;
59468;SDS011;45277;52.768;18.262;2023-03-31T06:04:10;9.38;;;5.90;;
59468;SDS011;45277;52.768;18.262;2023-03-31T06:05:50;18.23;;;9.45;;
59468;SDS011;45277;52.768;18.262;2023-03-31T06:07:23;14.73;;;7.95;;
59468;SDS011;45277;52.768;18.262;2023-03-31T06:08:54;17.23;;;9.82;;
59468;SDS011;45277;52.768;18.262;2023-03-31T06:10:26;10.00;;;6.18;;
59468;SDS011;45277;52.768;18.262;2023-03-31T06:11:58;6.63;;;5.15;;
59468;SDS011;45277;52.768;18.262;2023-03-31T06:13:29;11.18;;;5.30;;
59468;SDS011;45277;52.768;18.262;2023-03-31T06:15:01;12.68;;;7.70;;
59468;SDS011;45277;52.768;18.262;2023-03-31T06:16:33;30.70;;;7.28;;
59468;SDS011;45277;52.768;18.262;2023-03-31T06:18:04;9.23;;;5.82;;
59468;SDS011;45277;52.768;18.262;2023-03-31T06:19:40;14.43;;;7.28;;
59468;SDS011;45277;52.768;18.262;2023-03-31T06:21:12;7.07;;;5.38;;
59468;SDS011;45277;52.768;18.262;2023-03-31T06:22:45;15.40;;;9.18;;
59468;SDS011;45277;52.768;18.262;2023-03-31T06:24:17;17.42;;;9.13;;
59468;SDS011;45277;52.768;18.262;2023-03-31T06:25:48;9.98;;;5.63;;
59468;SDS011;45277;52.768;18.262;2023-03-31T06:27:20;17.42;;;8.20;;
59468;SDS011;45277;52.768;18.262;2023-03-31T06:28:52;9.88;;;4.95;;
59468;SDS011;45277;52.768;18.262;2023-03-31T06:30:23;9.98;;;5.85;;
59468;SDS011;45277;52.768;18.262;2023-03-31T06:31:55;10.15;;;7.85;;
59468;SDS011;45277;52.768;18.262;2023-03-31T06:33:26;13.30;;;7.45;;
59468;SDS011;45277;52.768;18.262;2023-03-31T06:34:58;14.70;;;7.72;;
59468;SDS011;45277;52.768;18.262;2023-03-31T06:36:29;11.70;;;7.45;;
59468;SDS011;45277;52.768;18.262;2023-03-31T06:38:01;9.05;;;6.20;;
59468;SDS011;45277;52.768;18.262;2023-03-31T06:39:33;8.95;;;6.63;;
59468;SDS011;45277;52.768;18.262;2023-03-31T06:41:04;12.27;;;6.63;;
59468;SDS011;45277;52.768;18.262;2023-03-31T06:42:37;12.70;;;5.63;;
59468;SDS011;45277;52.768;18.262;2023-03-31T06:44:08;16.00;;;8.15;;
59468;SDS011;45277;52.768;18.262;2023-03-31T06:45:40;7.70;;;5.10;;
59468;SDS011;45277;52.768;18.262;2023-03-31T06:47:11;18.02;;;8.07;;
59468;SDS011;45277;52.768;18.262;2023-03-31T06:48:43;12.15;;;6.75;;
59468;SDS011;45277;52.768;18.262;2023-03-31T06:50:14;13.32;;;7.00;;
59468;SDS011;45277;52.768;18.262;2023-03-31T06:51:46;8.57;;;5.00;;
59468;SDS011;45277;52.768;18.262;2023-03-31T06:53:17;13.77;;;6.45;;
59468;SDS011;45277;52.768;18.262;2023-03-31T06:54:49;11.88;;;6.68;;
59468;SDS011;45277;52.768;18.262;2023-03-31T06:56:21;10.02;;;5.25;;
59468;SDS011;45277;52.768;18.262;2023-03-31T06:57:52;15.57;;;6.22;;
59468;SDS011;45277;52.768;18.262;2023-03-31T06:59:23;14.63;;;6.80;;
59468;SDS011;45277;52.768;18.262;2023-03-31T07:00:55;20.05;;;7.45;;
59468;SDS011;45277;52.768;18.262;2023-03-31T07:02:26;10.85;;;5.85;;
59468;SDS011;45277;52.768;18.262;2023-03-31T07:03:57;13.50;;;6.65;;
59468;SDS011;45277;52.768;18.262;2023-03-31T07:05:29;9.43;;;4.97;;
59468;SDS011;45277;52.768;18.262;2023-03-31T07:07:01;11.43;;;6.43;;
59468;SDS011;45277;52.768;18.262;2023-03-31T07:08:32;11.38;;;6.03;;
59468;SDS011;45277;52.768;18.262;2023-03-31T07:10:04;6.72;;;5.90;;
59468;SDS011;45277;52.768;18.262;2023-03-31T07:11:36;7.75;;;5.22;;
59468;SDS011;45277;52.768;18.262;2023-03-31T07:13:07;10.18;;;4.95;;
59468;SDS011;45277;52.768;18.262;2023-03-31T07:14:39;12.07;;;6.40;;
59468;SDS011;45277;52.768;18.262;2023-03-31T07:16:10;11.55;;;5.15;;
59468;SDS011;45277;52.768;18.262;2023-03-31T07:17:43;10.32;;;5.57;;
59468;SDS011;45277;52.768;18.262;2023-03-31T07:19:15;13.60;;;7.57;;
59468;SDS011;45277;52.768;18.262;2023-03-31T07:20:48;12.43;;;6.97;;
59468;SDS011;45277;52.768;18.262;2023-03-31T07:22:20;11.73;;;6.88;;
59468;SDS011;45277;52.768;18.262;2023-03-31T07:23:51;7.85;;;5.80;;
59468;SDS011;45277;52.768;18.262;2023-03-31T07:25:23;12.27;;;6.63;;
59468;SDS011;45277;52.768;18.262;2023-03-31T07:26:54;11.40;;;6.70;;
59468;SDS011;45277;52.768;18.262;2023-03-31T07:28:26;15.25;;;6.82;;
59468;SDS011;45277;52.768;18.262;2023-03-31T07:30:01;10.00;;;5.75;;
59468;SDS011;45277;52.768;18.262;2023-03-31T07:31:37;15.30;;;6.95;;
59468;SDS011;45277;52.768;18.262;2023-03-31T07:33:08;16.23;;;7.00;;
59468;SDS011;45277;52.768;18.262;2023-03-31T07:34:40;12.75;;;7.05;;
59468;SDS011;45277;52.768;18.262;2023-03-31T07:36:11;8.77;;;5.85;;
59468;SDS011;45277;52.768;18.262;2023-03-31T07:37:44;10.82;;;7.32;;
59468;SDS011;45277;52.768;18.262;2023-03-31T07:39:17;10.45;;;5.03;;
59468;SDS011;45277;52.768;18.262;2023-03-31T07:40:48;12.63;;;6.35;;
59468;SDS011;45277;52.768;18.262;2023-03-31T07:42:20;15.38;;;5.88;;
59468;SDS011;45277;52.768;18.262;2023-03-31T07:43:51;9.48;;;5.55;;
59468;SDS011;45277;52.768;18.262;2023-03-31T07:45:23;15.40;;;6.78;;
59468;SDS011;45277;52.768;18.262;2023-03-31T07:46:56;15.27;;;5.90;;
59468;SDS011;45277;52.768;18.262;2023-03-31T07:48:28;9.65;;;5.35;;
59468;SDS011;45277;52.768;18.262;2023-03-31T07:49:59;13.57;;;5.88;;
59468;SDS011;45277;52.768;18.262;2023-03-31T07:51:31;15.60;;;6.38;;
59468;SDS011;45277;52.768;18.262;2023-03-31T07:53:02;10.95;;;5.78;;
59468;SDS011;45277;52.768;18.262;2023-03-31T07:54:35;10.93;;;5.57;;
59468;SDS011;45277;52.768;18.262;2023-03-31T07:56:07;11.98;;;5.95;;
59468;SDS011;45277;52.768;18.262;2023-03-31T07:57:38;10.23;;;4.90;;
59468;SDS011;45277;52.768;18.262;2023-03-31T07:59:11;9.07;;;5.32;;
59468;SDS011;45277;52.768;18.262;2023-03-31T08:00:43;12.18;;;5.45;;
59468;SDS011;45277;52.768;18.262;2023-03-31T08:02:15;5.07;;;3.75;;
59468;SDS011;45277;52.768;18.262;2023-03-31T08:03:47;8.48;;;5.32;;
59468;SDS011;45277;52.768;18.262;2023-03-31T08:05:19;6.68;;;3.92;;
59468;SDS011;45277;52.768;18.262;2023-03-31T08:06:51;4.53;;;3.88;;
59468;SDS011;45277;52.768;18.262;2023-03-31T08:08:22;6.35;;;4.45;;
59468;SDS011;45277;52.768;18.262;2023-03-31T08:09:54;10.77;;;4.65;;
59468;SDS011;45277;52.768;18.262;2023-03-31T08:11:26;11.50;;;6.90;;
59468;SDS011;45277;52.768;18.262;2023-03-31T08:12:57;4.82;;;3.65;;
59468;SDS011;45277;52.768;18.262;2023-03-31T08:14:29;10.60;;;5.22;;
59468;SDS011;45277;52.768;18.262;2023-03-31T08:16:00;10.45;;;6.30;;
59468;SDS011;45277;52.768;18.262;2023-03-31T08:17:32;12.60;;;6.22;;
59468;SDS011;45277;52.768;18.262;2023-03-31T08:19:04;12.10;;;6.30;;
59468;SDS011;45277;52.768;18.262;2023-03-31T08:20:36;12.30;;;5.97;;
59468;SDS011;45277;52.768;18.262;2023-03-31T08:22:08;9.05;;;5.32;;
59468;SDS011;45277;52.768;18.262;2023-03-31T08:23:40;8.23;;;4.32;;
59468;SDS011;45277;52.768;18.262;2023-03-31T08:25:11;9.32;;;5.35;;
59468;SDS011;45277;52.768;18.262;2023-03-31T08:26:43;9.52;;;4.85;;
59468;SDS011;45277;52.768;18.262;2023-03-31T08:28:14;12.55;;;5.00;;
59468;SDS011;45277;52.768;18.262;2023-03-31T08:29:47;9.98;;;4.28;;
59468;SDS011;45277;52.768;18.262;2023-03-31T08:31:19;9.77;;;5.32;;
59468;SDS011;45277;52.768;18.262;2023-03-31T08:32:53;11.98;;;5.05;;
59468;SDS011;45277;52.768;18.262;2023-03-31T08:34:25;12.32;;;5.85;;
59468;SDS011;45277;52.768;18.262;2023-03-31T08:36:00;5.75;;;3.58;;
59468;SDS011;45277;52.768;18.262;2023-03-31T08:37:33;13.50;;;5.00;;
59468;SDS011;45277;52.768;18.262;2023-03-31T08:39:05;9.20;;;4.40;;
59468;SDS011;45277;52.768;18.262;2023-03-31T08:40:37;8.88;;;5.28;;
59468;SDS011;45277;52.768;18.262;2023-03-31T08:42:14;7.13;;;3.38;;
59468;SDS011;45277;52.768;18.262;2023-03-31T08:43:53;5.00;;;3.42;;
59468;SDS011;45277;52.768;18.262;2023-03-31T08:45:33;13.30;;;6.75;;
59468;SDS011;45277;52.768;18.262;2023-03-31T08:47:09;7.07;;;5.07;;
59468;SDS011;45277;52.768;18.262;2023-03-31T08:50:25;12.13;;;4.80;;
59468;SDS011;45277;52.768;18.262;2023-03-31T08:52:02;11.00;;;5.78;;
59468;SDS011;45277;52.768;18.262;2023-03-31T08:53:38;8.50;;;5.13;;
59468;SDS011;45277;52.768;18.262;2023-03-31T08:55:24;12.32;;;5.68;;
59468;SDS011;45277;52.768;18.262;2023-03-31T08:57:10;11.05;;;6.43;;
59468;SDS011;45277;52.768;18.262;2023-03-31T08:58:49;5.63;;;2.80;;
59468;SDS011;45277;52.768;18.262;2023-03-31T09:00:21;8.93;;;5.72;;
59468;SDS011;45277;52.768;18.262;2023-03-31T09:01:59;13.38;;;7.70;;
59468;SDS011;45277;52.768;18.262;2023-03-31T09:08:54;9.18;;;4.15;;
59468;SDS011;45277;52.768;18.262;2023-03-31T09:10:34;11.52;;;5.20;;
59468;SDS011;45277;52.768;18.262;2023-03-31T09:12:19;10.05;;;4.82;;
59468;SDS011;45277;52.768;18.262;2023-03-31T09:17:42;14.90;;;6.50;;
59468;SDS011;45277;52.768;18.262;2023-03-31T09:19:17;23.02;;;9.50;;
59468;SDS011;45277;52.768;18.262;2023-03-31T09:21:03;21.02;;;7.18;;
59468;SDS011;45277;52.768;18.262;2023-03-31T09:24:58;20.73;;;7.88;;
59468;SDS011;45277;52.768;18.262;2023-03-31T09:26:44;16.73;;;7.32;;
59468;SDS011;45277;52.768;18.262;2023-03-31T09:28:29;15.95;;;6.95;;
59468;SDS011;45277;52.768;18.262;2023-03-31T09:30:16;11.82;;;6.43;;
59468;SDS011;45277;52.768;18.262;2023-03-31T09:32:05;22.75;;;8.77;;
59468;SDS011;45277;52.768;18.262;2023-03-31T09:33:54;7.82;;;5.10;;
59468;SDS011;45277;52.768;18.262;2023-03-31T09:35:31;11.15;;;5.93;;
59468;SDS011;45277;52.768;18.262;2023-03-31T09:37:03;12.38;;;6.97;;
59468;SDS011;45277;52.768;18.262;2023-03-31T09:38:34;8.32;;;5.47;;
59468;SDS011;45277;52.768;18.262;2023-03-31T09:40:07;15.20;;;6.35;;
59468;SDS011;45277;52.768;18.262;2023-03-31T09:41:52;15.40;;;7.40;;
59468;SDS011;45277;52.768;18.262;2023-03-31T09:43:28;7.90;;;4.55;;
59468;SDS011;45277;52.768;18.262;2023-03-31T09:45:01;7.95;;;5.43;;
59468;SDS011;45277;52.768;18.262;2023-03-31T09:46:34;10.02;;;5.45;;
59468;SDS011;45277;52.768;18.262;2023-03-31T09:48:11;14.95;;;6.30;;
59468;SDS011;45277;52.768;18.262;2023-03-31T09:49:46;21.23;;;8.68;;
59468;SDS011;45277;52.768;18.262;2023-03-31T09:51:19;17.27;;;10.15;;
59468;SDS011;45277;52.768;18.262;2023-03-31T09:52:57;9.32;;;5.40;;
59468;SDS011;45277;52.768;18.262;2023-03-31T09:54:35;8.30;;;6.18;;
59468;SDS011;45277;52.768;18.262;2023-03-31T09:56:08;11.93;;;7.30;;
59468;SDS011;45277;52.768;18.262;2023-03-31T09:57:41;10.57;;;5.70;;
59468;SDS011;45277;52.768;18.262;2023-03-31T09:59:14;9.60;;;7.10;;
59468;SDS011;45277;52.768;18.262;2023-03-31T10:01:03;9.20;;;5.60;;
59468;SDS011;45277;52.768;18.262;2023-03-31T10:02:40;11.95;;;6.32;;
59468;SDS011;45277;52.768;18.262;2023-03-31T10:04:33;12.52;;;6.03;;
59468;SDS011;45277;52.768;18.262;2023-03-31T10:06:08;16.08;;;6.20;;
59468;SDS011;45277;52.768;18.262;2023-03-31T10:07:40;9.50;;;6.13;;
59468;SDS011;45277;52.768;18.262;2023-03-31T10:09:12;17.27;;;7.88;;
59468;SDS011;45277;52.768;18.262;2023-03-31T10:12:24;9.52;;;6.22;;